Time;durP1;ratioP1;P1;durP2;ratioP2;P2;SDS_P1;SDS_P2;PMS_P1;PMS_P2;Temp;Humidity;BMP_temperature;BMP_pressure;BME280_temperature;BME280_humidity;BME280_pressure;Samples;Min_cycle;Max_cycle;Signal;HPM_P1;HPM_P2
2021/10/15 00:02:06;;;;;;;7.90;6.17;;;;;;;;;;4975987;28;20890;-70
2021/10/15 00:04:32;;;;;;;7.67;5.63;;;;;;;;;;4976432;28;20439;-69
2021/10/15 00:06:58;;;;;;;4.90;4.50;;;;;;;;;;4975981;28;20557;-69
2021/10/15 00:09:24;;;;;;;5.87;5.20;;;;;;;;;;4975148;28;20735;-70
2021/10/15 00:14:54;;;;;;;5.67;5.17;;;;;;;;;;4975884;28;20449;-69
2021/10/15 00:17:20;;;;;;;5.50;5.00;;;;;;;;;;4975752;28;20414;-70
2021/10/15 00:19:46;;;;;;;5.20;4.23;;;;;;;;;;4976078;28;20935;-70
2021/10/15 00:22:12;;;;;;;5.17;4.50;;;;;;;;;;4975708;28;20429;-69
2021/10/15 00:24:38;;;;;;;5.30;4.80;;;;;;;;;;4975666;28;20974;-69
2021/10/15 00:30:08;;;;;;;5.60;5.10;;;;;;;;;;4975645;28;20478;-69
2021/10/15 00:32:34;;;;;;;4.70;4.20;;;;;;;;;;4975554;28;20544;-69
2021/10/15 00:35:00;;;;;;;4.93;4.53;;;;;;;;;;4975350;28;20551;-70
2021/10/15 00:37:26;;;;;;;6.23;4.67;;;;;;;;;;4972605;28;20418;-70
2021/10/15 00:39:52;;;;;;;7.57;4.80;;;;;;;;;;4975292;28;20870;-71
2021/10/15 00:45:21;;;;;;;6.50;4.93;;;;;;;;;;4975199;28;20956;-69
2021/10/15 00:47:47;;;;;;;6.90;5.40;;;;;;;;;;4975146;28;20407;-70
2021/10/15 00:50:13;;;;;;;6.30;5.40;;;;;;;;;;4975287;28;20469;-69
2021/10/15 00:52:40;;;;;;;5.63;5.03;;;;;;;;;;4975011;28;20960;-70
2021/10/15 00:55:06;;;;;;;7.00;4.80;;;;;;;;;;4974989;28;20419;-70
2021/10/15 01:00:36;;;;;;;5.20;4.00;;;;;;;;;;4974805;28;20414;-70
2021/10/15 01:03:02;;;;;;;9.40;5.33;;;;;;;;;;4974886;28;20410;-69
2021/10/15 01:05:28;;;;;;;5.80;5.20;;;;;;;;;;4974836;28;20507;-69
2021/10/15 01:07:56;;;;;;;6.53;4.33;;;;;;;;;;4974948;28;20467;-69
2021/10/15 01:10:23;;;;;;;5.80;5.20;;;;;;;;;;4974985;28;20419;-69
2021/10/15 01:15:52;;;;;;;7.20;5.20;;;;;;;;;;4974691;28;20988;-70
2021/10/15 01:18:18;;;;;;;5.23;4.73;;;;;;;;;;4974601;28;20414;-70
2021/10/15 01:20:44;;;;;;;6.80;4.70;;;;;;;;;;4974561;28;20848;-69
2021/10/15 01:23:10;;;;;;;7.10;5.33;;;;;;;;;;4974628;28;20572;-68
2021/10/15 01:25:36;;;;;;;5.83;5.17;;;;;;;;;;4974574;28;20419;-70
2021/10/15 01:28:03;;;;;;;5.17;4.43;;;;;;;;;;4974400;28;20767;-70
2021/10/15 01:30:29;;;;;;;5.17;4.67;;;;;;;;;;4974731;28;20422;-71
2021/10/15 01:32:55;;;;;;;5.50;5.00;;;;;;;;;;4974371;28;20557;-70
2021/10/15 01:35:21;;;;;;;5.97;5.07;;;;;;;;;;4971924;28;20443;-71
2021/10/15 01:37:47;;;;;;;7.17;4.37;;;;;;;;;;4974107;28;20459;-70
2021/10/15 01:40:13;;;;;;;4.90;4.50;;;;;;;;;;4974390;28;20507;-70
2021/10/15 01:45:43;;;;;;;5.07;4.10;;;;;;;;;;4974279;28;20442;-69
2021/10/15 01:48:09;;;;;;;9.80;4.67;;;;;;;;;;4974237;28;20407;-71
2021/10/15 01:50:35;;;;;;;7.10;4.27;;;;;;;;;;4974362;28;20512;-68
2021/10/15 01:53:01;;;;;;;5.90;4.90;;;;;;;;;;4974135;28;20807;-69
2021/10/15 01:55:27;;;;;;;5.03;4.53;;;;;;;;;;4974117;28;20468;-69
2021/10/15 02:00:57;;;;;;;5.83;5.03;;;;;;;;;;4974224;28;20433;-69
2021/10/15 02:03:23;;;;;;;5.33;4.83;;;;;;;;;;4974227;28;20411;-69
2021/10/15 02:05:50;;;;;;;5.70;5.20;;;;;;;;;;4974614;28;20475;-70
2021/10/15 02:08:16;;;;;;;6.33;4.70;;;;;;;;;;4974156;28;20450;-71
2021/10/15 02:10:42;;;;;;;5.63;4.77;;;;;;;;;;4974125;28;20442;-70
2021/10/15 02:16:11;;;;;;;5.00;4.10;;;;;;;;;;4974045;28;20581;-70
2021/10/15 02:18:37;;;;;;;4.90;4.40;;;;;;;;;;4974315;28;20438;-70
2021/10/15 02:21:03;;;;;;;6.10;5.20;;;;;;;;;;4974285;28;20422;-71
2021/10/15 02:23:29;;;;;;;8.77;4.63;;;;;;;;;;4973980;28;20446;-70
2021/10/15 02:25:55;;;;;;;5.20;4.80;;;;;;;;;;4973901;28;20414;-69
2021/10/15 02:31:25;;;;;;;7.00;5.23;;;;;;;;;;4974333;28;20478;-70
2021/10/15 02:33:51;;;;;;;6.43;5.53;;;;;;;;;;4977718;28;20474;-69
2021/10/15 02:36:17;;;;;;;5.37;4.80;;;;;;;;;;4977693;28;20438;-69
2021/10/15 02:38:43;;;;;;;5.80;5.30;;;;;;;;;;4977836;28;20433;-70
2021/10/15 02:41:09;;;;;;;5.50;5.00;;;;;;;;;;4976250;28;20422;-69
2021/10/15 02:43:35;;;;;;;6.00;5.40;;;;;;;;;;4977407;28;20516;-69
2021/10/15 02:46:01;;;;;;;7.83;5.43;;;;;;;;;;4977312;28;20477;-70
2021/10/15 02:48:26;;;;;;;5.60;5.03;;;;;;;;;;4977419;28;20458;-70
2021/10/15 02:50:53;;;;;;;5.63;5.13;;;;;;;;;;4977366;28;20469;-70
2021/10/15 02:53:18;;;;;;;6.10;5.20;;;;;;;;;;4977244;28;20573;-71
2021/10/15 02:55:44;;;;;;;6.40;5.03;;;;;;;;;;4977209;28;20494;-69
2021/10/15 03:01:14;;;;;;;8.70;5.10;;;;;;;;;;4977022;28;20468;-69
2021/10/15 03:03:40;;;;;;;6.20;4.93;;;;;;;;;;4977157;28;20917;-70
2021/10/15 03:06:07;;;;;;;6.00;5.40;;;;;;;;;;4976989;28;20417;-69
2021/10/15 03:08:32;;;;;;;5.80;4.90;;;;;;;;;;4976990;28;20407;-68
2021/10/15 03:10:58;;;;;;;7.07;5.30;;;;;;;;;;4976904;28;20805;-69
2021/10/15 03:16:28;;;;;;;7.03;5.43;;;;;;;;;;4976639;28;20841;-70
2021/10/15 03:18:54;;;;;;;6.20;5.60;;;;;;;;;;4976773;28;20414;-71
2021/10/15 03:21:20;;;;;;;5.70;5.20;;;;;;;;;;4977044;28;20454;-70
2021/10/15 03:23:46;;;;;;;6.07;4.87;;;;;;;;;;4976692;28;20449;-70
2021/10/15 03:26:12;;;;;;;6.40;5.47;;;;;;;;;;4976709;28;20423;-69
2021/10/15 03:31:41;;;;;;;5.93;5.10;;;;;;;;;;4976586;28;20532;-70
2021/10/15 03:34:07;;;;;;;6.83;5.73;;;;;;;;;;4976794;28;20581;-70
2021/10/15 03:36:33;;;;;;;5.50;4.63;;;;;;;;;;4976537;28;20442;-70
2021/10/15 03:38:59;;;;;;;6.67;5.30;;;;;;;;;;4976567;28;20462;-71
2021/10/15 03:41:25;;;;;;;5.23;4.53;;;;;;;;;;4976308;28;20417;-70
2021/10/15 03:46:55;;;;;;;5.97;5.00;;;;;;;;;;4976181;28;20421;-69
2021/10/15 03:49:20;;;;;;;7.10;5.83;;;;;;;;;;4976417;28;20510;-69
2021/10/15 03:51:46;;;;;;;5.97;5.10;;;;;;;;;;4976163;28;20785;-69
2021/10/15 03:54:12;;;;;;;5.90;5.30;;;;;;;;;;4976342;28;20430;-70
2021/10/15 03:56:38;;;;;;;10.97;5.27;;;;;;;;;;4975987;28;20565;-70
2021/10/15 04:02:08;;;;;;;5.47;4.90;;;;;;;;;;4975356;28;20421;-69
2021/10/15 04:04:34;;;;;;;5.40;4.50;;;;;;;;;;4976082;28;20418;-69
2021/10/15 04:07:00;;;;;;;6.07;4.50;;;;;;;;;;4975963;28;20889;-69
2021/10/15 04:09:26;;;;;;;5.80;4.73;;;;;;;;;;4976067;28;20477;-69
2021/10/15 04:11:52;;;;;;;5.93;4.17;;;;;;;;;;4975608;28;20894;-69
2021/10/15 04:14:18;;;;;;;5.07;4.27;;;;;;;;;;4975728;28;20427;-68
2021/10/15 04:16:44;;;;;;;7.10;4.33;;;;;;;;;;4975552;28;20415;-69
2021/10/15 04:19:10;;;;;;;3.47;3.17;;;;;;;;;;4975964;28;20426;-70
2021/10/15 04:21:36;;;;;;;4.90;4.40;;;;;;;;;;4975739;28;20495;-70
2021/10/15 04:24:02;;;;;;;6.03;5.03;;;;;;;;;;4975637;28;20528;-70
2021/10/15 04:26:28;;;;;;;5.10;4.27;;;;;;;;;;4975590;28;20449;-69
2021/10/15 04:31:58;;;;;;;4.43;3.67;;;;;;;;;;4975227;28;20821;-70
2021/10/15 04:34:24;;;;;;;4.60;4.20;;;;;;;;;;4975510;28;20423;-70
2021/10/15 04:36:50;;;;;;;5.00;4.50;;;;;;;;;;4975305;28;20755;-69
2021/10/15 04:39:16;;;;;;;4.70;3.57;;;;;;;;;;4975280;28;20418;-70
2021/10/15 04:41:42;;;;;;;5.50;4.47;;;;;;;;;;4975317;28;20418;-69
2021/10/15 04:47:11;;;;;;;5.30;4.37;;;;;;;;;;4975025;28;20449;-69
2021/10/15 04:49:37;;;;;;;4.47;3.33;;;;;;;;;;4975177;28;20605;-69
2021/10/15 04:52:03;;;;;;;5.47;4.00;;;;;;;;;;4974965;28;20425;-69
2021/10/15 04:54:30;;;;;;;6.10;4.80;;;;;;;;;;4974044;28;20759;-70
2021/10/15 04:56:56;;;;;;;4.90;4.40;;;;;;;;;;4974823;28;20546;-71
2021/10/15 05:02:25;;;;;;;4.53;4.07;;;;;;;;;;4974889;28;20442;-70
2021/10/15 05:04:51;;;;;;;7.60;4.20;;;;;;;;;;4975035;28;20830;-69
2021/10/15 05:07:17;;;;;;;4.27;3.67;;;;;;;;;;4974924;28;20513;-70
2021/10/15 05:09:43;;;;;;;4.13;3.33;;;;;;;;;;4975053;28;20458;-69
2021/10/15 05:12:15;;;;;;;4.73;4.33;;;;;;;;;;4974621;28;20600;-70
2021/10/15 05:17:45;;;;;;;4.87;4.47;;;;;;;;;;4974701;28;20426;-70
2021/10/15 05:20:12;;;;;;;9.70;5.00;;;;;;;;;;4974617;28;20924;-70
2021/10/15 05:22:38;;;;;;;8.50;4.40;;;;;;;;;;4974946;28;20411;-70
2021/10/15 05:25:05;;;;;;;5.50;4.57;;;;;;;;;;4974698;28;20419;-71
2021/10/15 05:27:31;;;;;;;6.33;5.53;;;;;;;;;;4971550;28;20469;-69
2021/10/15 05:33:01;;;;;;;8.77;4.10;;;;;;;;;;4974504;28;20540;-69
2021/10/15 05:35:27;;;;;;;5.47;4.50;;;;;;;;;;4974465;28;20501;-70
2021/10/15 05:37:53;;;;;;;4.73;3.80;;;;;;;;;;4974714;28;20458;-70
2021/10/15 05:40:19;;;;;;;5.30;3.97;;;;;;;;;;4974079;28;20423;-69
2021/10/15 05:42:46;;;;;;;10.70;5.10;;;;;;;;;;4974206;28;20429;-70
2021/10/15 05:45:12;;;;;;;5.20;4.80;;;;;;;;;;4974286;28;20482;-68
2021/10/15 05:47:38;;;;;;;4.63;3.77;;;;;;;;;;4974335;28;20427;-69
2021/10/15 05:50:04;;;;;;;4.43;4.03;;;;;;;;;;4974236;28;20427;-70
2021/10/15 05:52:42;;;;;;;5.60;4.47;;;;;;;;;;4974427;28;20478;-70
2021/10/15 06:03:29;;;;;;;6.27;4.03;;;;;;;;;;4973804;28;20441;-71
2021/10/15 06:14:25;;;;;;;8.57;5.43;;;;;;;;;;4977928;28;20488;-68
2021/10/15 06:16:54;;;;;;;11.40;6.33;;;;;;;;;;4978193;28;20446;-70
2021/10/15 06:19:22;;;;;;;10.33;6.00;;;;;;;;;;4978012;28;20457;-70
2021/10/15 06:21:49;;;;;;;9.30;5.47;;;;;;;;;;4977915;28;20422;-69
2021/10/15 06:24:15;;;;;;;7.57;5.37;;;;;;;;;;4978119;28;20541;-68
2021/10/15 06:26:41;;;;;;;5.70;4.90;;;;;;;;;;4977712;28;20920;-69
2021/10/15 06:29:08;;;;;;;10.27;6.37;;;;;;;;;;4977731;28;20960;-69
2021/10/15 06:31:34;;;;;;;9.87;5.50;;;;;;;;;;4977869;28;20418;-70
2021/10/15 06:34:00;;;;;;;12.80;5.80;;;;;;;;;;4977665;28;20480;-70
2021/10/15 06:36:26;;;;;;;7.70;5.57;;;;;;;;;;4977889;28;20505;-70
2021/10/15 06:38:52;;;;;;;6.83;5.20;;;;;;;;;;4977615;28;20426;-69
2021/10/15 06:41:18;;;;;;;9.73;5.80;;;;;;;;;;4977653;28;20465;-69
2021/10/15 06:43:44;;;;;;;8.50;5.67;;;;;;;;;;4977736;28;20561;-69
2021/10/15 06:46:10;;;;;;;7.73;5.10;;;;;;;;;;4976266;28;20569;-70
2021/10/15 06:48:36;;;;;;;6.20;5.57;;;;;;;;;;4977481;28;20464;-69
2021/10/15 06:51:02;;;;;;;9.40;5.53;;;;;;;;;;4977321;28;20438;-70
2021/10/15 06:53:28;;;;;;;7.73;5.37;;;;;;;;;;4977439;28;20588;-69
2021/10/15 06:55:54;;;;;;;6.83;5.87;;;;;;;;;;4977296;28;20553;-69
2021/10/15 06:58:20;;;;;;;9.23;5.40;;;;;;;;;;4977237;28;20415;-69
2021/10/15 07:03:49;;;;;;;6.87;5.53;;;;;;;;;;4977294;28;20422;-70
2021/10/15 07:06:15;;;;;;;7.83;5.43;;;;;;;;;;4975971;28;20885;-69
2021/10/15 07:08:41;;;;;;;8.07;5.10;;;;;;;;;;4977215;28;20420;-69
2021/10/15 07:11:07;;;;;;;7.17;5.90;;;;;;;;;;4977223;28;20414;-70
2021/10/15 07:13:33;;;;;;;8.83;5.10;;;;;;;;;;4976847;28;20478;-70
2021/10/15 07:15:59;;;;;;;5.97;4.93;;;;;;;;;;4976780;28;20414;-70
2021/10/15 07:18:25;;;;;;;7.57;5.93;;;;;;;;;;4976605;28;20790;-70
2021/10/15 07:20:51;;;;;;;8.10;5.43;;;;;;;;;;4976930;28;20415;-69
2021/10/15 07:23:17;;;;;;;10.90;6.63;;;;;;;;;;4977150;28;20500;-69
2021/10/15 07:25:45;;;;;;;15.03;5.47;;;;;;;;;;4976746;28;20443;-69
2021/10/15 07:28:11;;;;;;;11.07;6.27;;;;;;;;;;4976878;28;20416;-69
2021/10/15 07:33:41;;;;;;;16.40;6.40;;;;;;;;;;4976690;28;20515;-70
2021/10/15 07:36:07;;;;;;;7.80;6.17;;;;;;;;;;4976610;28;20426;-68
2021/10/15 07:38:33;;;;;;;11.63;6.63;;;;;;;;;;4976513;28;20857;-69
2021/10/15 07:40:59;;;;;;;10.40;6.77;;;;;;;;;;4976503;28;20820;-69
2021/10/15 07:43:25;;;;;;;15.33;6.43;;;;;;;;;;4976406;28;20416;-68
2021/10/15 07:48:55;;;;;;;9.73;5.70;;;;;;;;;;4976431;28;20418;-70
2021/10/15 07:51:21;;;;;;;9.20;5.60;;;;;;;;;;4976203;28;20464;-70
2021/10/15 07:53:47;;;;;;;9.83;6.13;;;;;;;;;;4976341;28;20553;-71
2021/10/15 07:56:13;;;;;;;16.60;6.33;;;;;;;;;;4976047;28;20465;-70
2021/10/15 07:58:39;;;;;;;8.37;6.03;;;;;;;;;;4976101;28;20485;-70
2021/10/15 08:04:08;;;;;;;4.50;4.10;;;;;;;;;;4976353;28;20418;-69
2021/10/15 08:06:34;;;;;;;6.00;4.53;;;;;;;;;;4976015;28;20403;-69
2021/10/15 08:09:00;;;;;;;4.57;4.13;;;;;;;;;;4975941;28;20417;-69
2021/10/15 08:11:26;;;;;;;5.03;4.53;;;;;;;;;;4975696;28;20414;-69
2021/10/15 08:19:41;;;;;;;4.70;4.30;;;;;;;;;;4975896;28;20449;-71
2021/10/15 08:22:07;;;;;;;4.97;4.47;;;;;;;;;;4975702;28;20506;-70
2021/10/15 08:24:33;;;;;;;3.67;3.33;;;;;;;;;;4975652;28;20491;-69
2021/10/15 08:26:59;;;;;;;4.63;4.23;;;;;;;;;;4975820;28;20890;-69
2021/10/15 08:29:25;;;;;;;3.97;3.67;;;;;;;;;;4975136;28;20411;-69
2021/10/15 08:31:52;;;;;;;4.10;3.53;;;;;;;;;;4975811;28;20447;-69
2021/10/15 08:34:18;;;;;;;10.57;5.20;;;;;;;;;;4975485;28;20482;-71
2021/10/15 08:36:47;;;;;;;5.23;4.60;;;;;;;;;;4975494;28;20407;-70
2021/10/15 08:39:17;;;;;;;8.50;5.57;;;;;;;;;;4975435;28;20786;-70
2021/10/15 08:41:43;;;;;;;10.87;6.00;;;;;;;;;;4975208;28;20482;-69
2021/10/15 08:44:10;;;;;;;10.63;5.63;;;;;;;;;;4974219;28;20530;-70
2021/10/15 08:46:36;;;;;;;9.70;5.20;;;;;;;;;;4975473;28;20929;-70
2021/10/15 08:49:02;;;;;;;4.83;3.90;;;;;;;;;;4975754;28;20419;-71
2021/10/15 08:51:30;;;;;;;3.87;3.47;;;;;;;;;;4975411;28;20521;-70
2021/10/15 08:53:58;;;;;;;2.90;2.70;;;;;;;;;;4975128;28;20486;-70
2021/10/15 08:56:27;;;;;;;3.50;3.20;;;;;;;;;;4975040;28;20477;-71
2021/10/15 08:59:00;;;;;;;4.03;3.37;;;;;;;;;;4975032;28;20461;-69
2021/10/15 09:04:29;;;;;;;3.87;3.07;;;;;;;;;;4975014;28;20514;-70
2021/10/15 09:06:55;;;;;;;3.03;2.73;;;;;;;;;;4974835;28;20438;-70
2021/10/15 09:09:28;;;;;;;4.80;3.20;;;;;;;;;;4975135;28;20437;-70
2021/10/15 09:12:06;;;;;;;4.13;3.83;;;;;;;;;;4974725;28;20418;-68
2021/10/15 09:14:34;;;;;;;4.40;3.50;;;;;;;;;;4974910;28;20458;-70
2021/10/15 09:17:04;;;;;;;3.50;3.20;;;;;;;;;;4973700;28;20445;-69
2021/10/15 09:19:32;;;;;;;4.80;3.50;;;;;;;;;;4974706;28;20980;-69
2021/10/15 09:22:27;;;;;;;6.60;6.00;;;;;;;;;;4975099;28;20426;-71
2021/10/15 09:24:53;;;;;;;6.27;4.00;;;;;;;;;;4974373;28;20474;-69
2021/10/15 09:27:38;;;;;;;4.73;4.33;;;;;;;;;;4974504;28;20426;-70
2021/10/15 09:30:04;;;;;;;4.17;3.77;;;;;;;;;;4973159;28;20446;-69
2021/10/15 09:32:34;;;;;;;4.37;3.97;;;;;;;;;;4974585;28;20458;-70
2021/10/15 09:35:00;;;;;;;6.60;3.60;;;;;;;;;;4974839;28;20419;-70
2021/10/15 09:37:27;;;;;;;5.50;3.40;;;;;;;;;;4974637;28;20410;-70
2021/10/15 09:40:09;;;;;;;3.43;3.10;;;;;;;;;;4974470;28;20499;-71
2021/10/15 09:42:36;;;;;;;3.43;3.10;;;;;;;;;;4973984;28;20415;-71
2021/10/15 09:45:12;;;;;;;3.70;3.40;;;;;;;;;;4974621;28;20418;-70
2021/10/15 09:47:38;;;;;;;3.57;2.87;;;;;;;;;;4973184;28;20442;-69
2021/10/15 09:50:06;;;;;;;3.10;2.83;;;;;;;;;;4974366;28;20859;-70
2021/10/15 09:52:40;;;;;;;3.27;2.97;;;;;;;;;;4974297;28;20458;-71
2021/10/15 09:55:08;;;;;;;2.80;2.60;;;;;;;;;;4974176;28;20426;-71
2021/10/15 09:57:39;;;;;;;3.67;3.20;;;;;;;;;;4973950;28;20423;-70
2021/10/15 10:00:07;;;;;;;3.00;2.70;;;;;;;;;;4974240;28;20427;-71
2021/10/15 10:02:34;;;;;;;3.03;2.57;;;;;;;;;;4974261;28;20436;-71
2021/10/15 10:05:00;;;;;;;3.40;3.10;;;;;;;;;;4974077;28;20426;-70
2021/10/15 10:07:26;;;;;;;2.70;2.50;;;;;;;;;;4974678;28;20423;-71
2021/10/15 10:09:53;;;;;;;3.90;2.77;;;;;;;;;;4974399;28;20423;-72
2021/10/15 10:12:19;;;;;;;2.80;2.60;;;;;;;;;;4973770;28;20419;-71
2021/10/15 10:14:46;;;;;;;2.97;2.47;;;;;;;;;;4974384;28;20773;-70
2021/10/15 10:17:14;;;;;;;4.43;2.60;;;;;;;;;;4974198;28;20420;-71
2021/10/15 10:19:42;;;;;;;4.70;1.93;;;;;;;;;;4972763;28;20442;-70
2021/10/15 10:22:08;;;;;;;2.60;2.20;;;;;;;;;;4974014;28;20477;-71
2021/10/15 10:24:35;;;;;;;1.83;1.73;;;;;;;;;;4973956;28;20719;-71
2021/10/15 10:27:01;;;;;;;2.70;1.77;;;;;;;;;;4973736;28;20521;-71
2021/10/15 10:29:28;;;;;;;3.00;2.17;;;;;;;;;;4974021;28;20503;-70
2021/10/15 10:35:17;;;;;;;2.70;2.00;;;;;;;;;;4974101;28;20438;-71
2021/10/15 10:37:43;;;;;;;2.77;1.70;;;;;;;;;;4973625;28;20963;-71
2021/10/15 10:40:10;;;;;;;4.60;2.10;;;;;;;;;;4972825;28;20434;-71
2021/10/15 10:42:56;;;;;;;3.07;2.23;;;;;;;;;;4973619;28;20779;-71
2021/10/15 10:45:22;;;;;;;2.13;1.90;;;;;;;;;;4973498;28;20855;-71
2021/10/15 10:48:08;;;;;;;2.17;2.00;;;;;;;;;;4974112;28;20423;-71
2021/10/15 10:50:34;;;;;;;5.83;2.50;;;;;;;;;;4974014;28;20425;-72
2021/10/15 10:53:00;;;;;;;6.80;2.27;;;;;;;;;;4975208;28;20569;-71
2021/10/15 10:55:36;;;;;;;2.10;2.00;;;;;;;;;;4977046;28;20481;-71
2021/10/15 10:58:02;;;;;;;3.23;2.93;;;;;;;;;;4977228;28;20418;-70
2021/10/15 11:00:30;;;;;;;3.10;1.80;;;;;;;;;;4976190;28;20437;-72
2021/10/15 11:02:56;;;;;;;2.23;1.80;;;;;;;;;;4975829;28;20489;-71
2021/10/15 11:05:29;;;;;;;2.80;2.23;;;;;;;;;;4977095;28;20418;-70
2021/10/15 11:08:14;;;;;;;2.33;1.57;;;;;;;;;;4977085;28;20505;-71
2021/10/15 11:10:40;;;;;;;2.00;1.60;;;;;;;;;;4977220;28;20422;-72
2021/10/15 11:13:06;;;;;;;2.10;1.90;;;;;;;;;;4975356;28;20593;-71
2021/10/15 11:15:33;;;;;;;2.17;1.40;;;;;;;;;;4976597;28;20399;-70
2021/10/15 11:18:00;;;;;;;1.60;1.50;;;;;;;;;;4976874;28;20411;-71
2021/10/15 11:20:28;;;;;;;1.50;1.30;;;;;;;;;;4976927;28;20403;-71
2021/10/15 11:23:06;;;;;;;1.80;1.50;;;;;;;;;;4975359;28;20997;-71
2021/10/15 11:25:37;;;;;;;1.73;1.63;;;;;;;;;;4976791;28;20399;-70
2021/10/15 11:28:06;;;;;;;1.90;1.70;;;;;;;;;;4977010;28;20444;-70
2021/10/15 11:30:33;;;;;;;4.30;2.07;;;;;;;;;;4976609;28;20422;-70
2021/10/15 11:33:00;;;;;;;1.80;1.70;;;;;;;;;;4976595;28;20466;-70
2021/10/15 11:35:29;;;;;;;1.73;1.40;;;;;;;;;;4976236;28;20411;-70
2021/10/15 11:38:02;;;;;;;4.70;1.37;;;;;;;;;;4976367;28;20803;-71
2021/10/15 11:40:28;;;;;;;1.60;1.50;;;;;;;;;;4976430;28;20445;-71
2021/10/15 11:42:54;;;;;;;2.43;1.80;;;;;;;;;;4976260;28;20838;-71
2021/10/15 11:45:31;;;;;;;2.73;1.77;;;;;;;;;;4976203;28;20423;-71
2021/10/15 11:47:58;;;;;;;3.07;1.60;;;;;;;;;;4976292;28;20441;-70
2021/10/15 11:50:36;;;;;;;2.00;1.40;;;;;;;;;;4976197;28;20418;-70
2021/10/15 11:53:03;;;;;;;2.20;1.90;;;;;;;;;;4976065;28;20810;-70
2021/10/15 11:55:35;;;;;;;1.60;1.47;;;;;;;;;;4976033;28;20964;-71
2021/10/15 11:58:20;;;;;;;2.97;2.20;;;;;;;;;;4976082;28;20446;-71
2021/10/15 12:00:55;;;;;;;2.30;2.10;;;;;;;;;;4976001;28;20426;-71
2021/10/15 12:03:25;;;;;;;6.50;2.23;;;;;;;;;;4975894;28;20420;-70
2021/10/15 12:05:51;;;;;;;2.10;1.90;;;;;;;;;;4973865;28;20470;-71
2021/10/15 12:08:17;;;;;;;2.80;2.60;;;;;;;;;;4976010;28;20461;-71
2021/10/15 12:10:44;;;;;;;3.73;3.43;;;;;;;;;;4975921;28;20414;-70
2021/10/15 12:13:10;;;;;;;4.60;4.20;;;;;;;;;;4974297;28;20478;-71
2021/10/15 12:15:36;;;;;;;5.47;4.90;;;;;;;;;;4975870;28;20430;-70
2021/10/15 12:18:08;;;;;;;4.60;4.20;;;;;;;;;;4975922;28;20426;-71
2021/10/15 12:20:34;;;;;;;3.50;3.20;;;;;;;;;;4974527;28;20426;-71
2021/10/15 12:23:04;;;;;;;3.90;3.07;;;;;;;;;;4974735;28;20928;-70
2021/10/15 12:25:30;;;;;;;6.10;3.90;;;;;;;;;;4975602;28;20414;-70
2021/10/15 12:27:56;;;;;;;4.67;3.17;;;;;;;;;;4975631;28;20438;-70
2021/10/15 12:30:25;;;;;;;4.43;3.80;;;;;;;;;;4975868;28;20494;-71
2021/10/15 12:32:52;;;;;;;3.70;3.40;;;;;;;;;;4975500;28;20556;-70
2021/10/15 12:35:20;;;;;;;4.53;3.70;;;;;;;;;;4975670;28;20939;-70
2021/10/15 12:37:46;;;;;;;3.67;3.37;;;;;;;;;;4974286;28;20493;-70
2021/10/15 12:40:12;;;;;;;4.63;3.20;;;;;;;;;;4975489;28;20407;-71
2021/10/15 12:42:38;;;;;;;3.70;3.27;;;;;;;;;;4975374;28;20422;-70
2021/10/15 12:45:08;;;;;;;4.37;4.00;;;;;;;;;;4975503;28;20489;-70
2021/10/15 12:50:39;;;;;;;5.67;4.83;;;;;;;;;;4975573;28;20466;-72
2021/10/15 12:53:16;;;;;;;7.90;4.03;;;;;;;;;;4975181;28;20608;-70
2021/10/15 12:55:49;;;;;;;5.93;4.27;;;;;;;;;;4975027;28;20462;-70
2021/10/15 12:58:15;;;;;;;7.40;4.30;;;;;;;;;;4975018;28;20426;-70
2021/10/15 13:00:48;;;;;;;4.60;4.00;;;;;;;;;;4974984;28;20484;-70
2021/10/15 13:03:14;;;;;;;6.30;4.13;;;;;;;;;;4975014;28;20481;-70
2021/10/15 13:05:40;;;;;;;7.07;4.43;;;;;;;;;;4974992;28;20414;-72
2021/10/15 13:08:06;;;;;;;4.87;4.27;;;;;;;;;;4974909;28;20953;-69
2021/10/15 13:10:32;;;;;;;4.20;3.73;;;;;;;;;;4974946;28;20411;-71
2021/10/15 13:12:58;;;;;;;3.97;3.43;;;;;;;;;;4974648;28;20540;-70
2021/10/15 13:15:27;;;;;;;4.40;3.60;;;;;;;;;;4969805;28;20507;-70
2021/10/15 13:20:56;;;;;;;4.23;3.93;;;;;;;;;;4974436;28;20417;-71
2021/10/15 13:23:22;;;;;;;3.83;3.53;;;;;;;;;;4973983;28;20505;-70
2021/10/15 13:25:48;;;;;;;5.70;4.20;;;;;;;;;;4974301;28;20509;-68
2021/10/15 13:28:14;;;;;;;4.53;3.83;;;;;;;;;;4974177;28;20423;-69
2021/10/15 13:30:40;;;;;;;6.57;3.73;;;;;;;;;;4974138;28;20888;-69
2021/10/15 13:36:10;;;;;;;4.13;3.73;;;;;;;;;;4974317;28;20805;-73
2021/10/15 13:38:37;;;;;;;4.70;3.27;;;;;;;;;;4974432;28;20415;-72
2021/10/15 13:41:11;;;;;;;4.67;3.40;;;;;;;;;;4974249;28;20419;-69
2021/10/15 13:46:39;;;;;;;5.50;2.90;;;;;;;;;;4974187;28;20826;-71
2021/10/15 13:51:49;;;;;;;3.73;3.13;;;;;;;;;;4974340;28;20426;-70
2021/10/15 13:54:45;;;;;;;5.27;3.33;;;;;;;;;;4974502;28;20845;-69
2021/10/15 13:57:26;;;;;;;6.43;3.93;;;;;;;;;;4973643;28;20482;-68
2021/10/15 13:59:59;;;;;;;3.90;3.27;;;;;;;;;;4974447;28;20956;-69
2021/10/15 14:02:39;;;;;;;7.17;3.40;;;;;;;;;;4974484;28;20430;-68
2021/10/15 14:05:08;;;;;;;5.50;3.63;;;;;;;;;;4974541;28;20476;-67
2021/10/15 14:07:34;;;;;;;4.27;3.63;;;;;;;;;;4974451;28;20867;-69
2021/10/15 14:10:06;;;;;;;3.83;3.43;;;;;;;;;;4974520;28;20892;-69
2021/10/15 14:12:34;;;;;;;4.60;3.53;;;;;;;;;;4973926;28;20551;-69
2021/10/15 14:15:04;;;;;;;6.07;3.53;;;;;;;;;;4971621;28;20522;-71
2021/10/15 14:17:30;;;;;;;4.97;3.90;;;;;;;;;;4972969;28;20790;-71
2021/10/15 14:19:59;;;;;;;4.17;3.77;;;;;;;;;;4971823;28;20473;-72
2021/10/15 14:22:25;;;;;;;5.70;4.17;;;;;;;;;;4973398;28;20411;-71
2021/10/15 14:24:56;;;;;;;4.30;3.80;;;;;;;;;;4973706;28;20439;-72
2021/10/15 14:27:22;;;;;;;6.10;3.43;;;;;;;;;;4973809;28;20845;-69
2021/10/15 14:29:54;;;;;;;8.30;3.80;;;;;;;;;;4975772;28;20434;-71
2021/10/15 14:32:22;;;;;;;4.37;3.97;;;;;;;;;;4976899;28;20415;-70
2021/10/15 14:34:48;;;;;;;5.33;4.10;;;;;;;;;;4977369;28;20415;-71
2021/10/15 14:37:17;;;;;;;4.87;3.97;;;;;;;;;;4976786;28;20410;-71
2021/10/15 14:39:44;;;;;;;4.53;4.13;;;;;;;;;;4976878;28;20434;-70
2021/10/15 14:42:10;;;;;;;6.00;3.43;;;;;;;;;;4976793;28;20418;-70
2021/10/15 14:44:36;;;;;;;4.70;3.53;;;;;;;;;;4975474;28;20513;-69
2021/10/15 14:47:02;;;;;;;8.13;4.13;;;;;;;;;;4976482;28;20913;-69
2021/10/15 14:49:28;;;;;;;4.50;3.07;;;;;;;;;;4976858;28;20429;-70
2021/10/15 14:51:54;;;;;;;5.00;3.27;;;;;;;;;;4976515;28;21114;-70
2021/10/15 14:54:20;;;;;;;3.30;3.00;;;;;;;;;;4976516;28;20474;-70
2021/10/15 14:56:49;;;;;;;3.47;3.17;;;;;;;;;;4975925;28;20870;-72
2021/10/15 14:59:20;;;;;;;3.93;3.40;;;;;;;;;;4976283;28;20415;-69
2021/10/15 15:01:46;;;;;;;4.57;3.53;;;;;;;;;;4976201;28;20409;-70
2021/10/15 15:04:13;;;;;;;4.13;3.73;;;;;;;;;;4976172;28;20414;-70
2021/10/15 15:06:39;;;;;;;3.77;3.03;;;;;;;;;;4976188;28;20421;-70
2021/10/15 15:09:05;;;;;;;4.77;3.43;;;;;;;;;;4975828;28;20768;-72
2021/10/15 15:11:31;;;;;;;3.80;3.40;;;;;;;;;;4975846;28;20399;-71
2021/10/15 15:13:57;;;;;;;8.27;3.73;;;;;;;;;;4975963;28;20477;-70
2021/10/15 15:16:23;;;;;;;4.27;2.67;;;;;;;;;;4975670;28;20864;-71
2021/10/15 15:21:55;;;;;;;3.43;2.40;;;;;;;;;;4975773;28;20418;-70
2021/10/15 15:24:21;;;;;;;3.23;2.93;;;;;;;;;;4976185;28;20426;-72
2021/10/15 15:26:47;;;;;;;4.00;2.70;;;;;;;;;;4975817;28;20494;-71
2021/10/15 15:29:16;;;;;;;5.50;2.83;;;;;;;;;;4976121;28;20818;-70
2021/10/15 15:31:42;;;;;;;6.73;2.60;;;;;;;;;;4975966;28;20958;-70
2021/10/15 15:37:11;;;;;;;3.93;2.53;;;;;;;;;;4975469;28;20481;-70
2021/10/15 15:39:37;;;;;;;3.60;2.97;;;;;;;;;;4975434;28;20419;-71
2021/10/15 15:42:03;;;;;;;4.37;2.50;;;;;;;;;;4975427;28;20503;-70
2021/10/15 15:44:33;;;;;;;2.93;2.67;;;;;;;;;;4975662;28;20509;-70
2021/10/15 15:47:00;;;;;;;3.10;2.30;;;;;;;;;;4974016;28;20472;-70
2021/10/15 15:52:30;;;;;;;7.30;2.90;;;;;;;;;;4975213;28;20469;-73
2021/10/15 15:54:57;;;;;;;4.17;2.40;;;;;;;;;;4974110;28;20430;-72
2021/10/15 15:57:24;;;;;;;4.60;2.53;;;;;;;;;;4973832;28;20881;-73
2021/10/15 15:59:52;;;;;;;3.13;2.50;;;;;;;;;;4975554;28;20431;-73
2021/10/15 16:02:20;;;;;;;4.67;3.07;;;;;;;;;;4975096;28;20422;-72
2021/10/15 16:04:46;;;;;;;4.70;2.67;;;;;;;;;;4975323;28;20422;-71
2021/10/15 16:07:12;;;;;;;2.67;2.10;;;;;;;;;;4975266;28;20646;-72
2021/10/15 16:09:38;;;;;;;3.07;2.77;;;;;;;;;;4975111;28;20894;-70
2021/10/15 16:12:04;;;;;;;4.50;2.47;;;;;;;;;;4974933;28;20415;-70
2021/10/15 16:14:30;;;;;;;2.23;2.13;;;;;;;;;;4974975;28;20475;-70
2021/10/15 16:16:56;;;;;;;2.60;2.20;;;;;;;;;;4974216;28;20477;-70
2021/10/15 16:22:25;;;;;;;2.77;2.50;;;;;;;;;;4974571;28;20425;-70
2021/10/15 16:24:53;;;;;;;4.50;2.27;;;;;;;;;;4974584;28;20441;-68
2021/10/15 16:27:18;;;;;;;2.50;2.30;;;;;;;;;;4974265;28;20423;-69
2021/10/15 16:29:45;;;;;;;3.40;2.57;;;;;;;;;;4974997;28;20421;-69
2021/10/15 16:32:11;;;;;;;4.60;3.63;;;;;;;;;;4974290;28;20478;-68
2021/10/15 16:37:43;;;;;;;3.47;3.13;;;;;;;;;;4974370;28;20520;-69
2021/10/15 16:40:10;;;;;;;3.70;3.20;;;;;;;;;;4975242;28;20418;-69
2021/10/15 16:42:36;;;;;;;3.33;2.90;;;;;;;;;;4975155;28;20415;-70
2021/10/15 16:45:03;;;;;;;4.50;2.83;;;;;;;;;;4975669;28;20795;-70
2021/10/15 16:47:29;;;;;;;5.80;3.20;;;;;;;;;;4975507;28;20776;-70
2021/10/15 16:52:58;;;;;;;3.67;3.37;;;;;;;;;;4974934;28;20457;-69
2021/10/15 16:55:24;;;;;;;4.53;3.70;;;;;;;;;;4974866;28;20914;-68
2021/10/15 16:57:52;;;;;;;5.00;4.33;;;;;;;;;;4973829;28;20442;-70